createdAt,value
2022-08-02T00:00:58.920Z,100.00
2022-08-02T00:06:01.565Z,100.00
2022-08-02T00:11:04.296Z,100.00
2022-08-02T00:16:08.635Z,100.00
2022-08-02T00:21:11.666Z,100.00
2022-08-02T00:26:14.356Z,100.00
2022-08-02T00:31:18.280Z,100.00
2022-08-02T00:36:21.248Z,100.00
2022-08-02T00:41:24.031Z,100.00
2022-08-02T00:46:28.073Z,100.00
2022-08-02T00:51:30.711Z,100.00
2022-08-02T00:56:33.546Z,100.00
2022-08-02T01:01:56.675Z,100.00
2022-08-02T01:07:00.767Z,100.00
2022-08-02T01:12:03.338Z,100.00
2022-08-02T01:17:10.880Z,100.00
2022-08-02T01:22:34.659Z,100.00
2022-08-02T01:27:55.929Z,100.00
2022-08-02T01:33:02.688Z,100.00
2022-08-02T01:38:10.352Z,100.00
2022-08-02T01:43:14.108Z,100.00
2022-08-02T01:48:18.940Z,100.00
2022-08-02T01:53:25.217Z,100.00
2022-08-02T01:58:31.950Z,100.00
2022-08-02T02:03:41.584Z,100.00
2022-08-02T02:08:45.639Z,100.00
2022-08-02T02:13:50.119Z,100.00
2022-08-02T02:18:55.585Z,100.00
2022-08-02T02:23:59.401Z,100.00
2022-08-02T02:29:03.947Z,100.00
2022-08-02T02:34:12.115Z,100.00
2022-08-02T02:39:16.371Z,100.00
2022-08-02T02:44:21.499Z,100.00
2022-08-02T02:49:26.978Z,100.00
2022-08-02T02:54:34.068Z,100.00
2022-08-02T02:59:48.901Z,100.00
2022-08-02T03:04:58.076Z,100.00
2022-08-02T03:10:01.053Z,100.00
2022-08-02T03:15:08.127Z,100.00
2022-08-02T03:20:14.618Z,100.00
2022-08-02T03:25:18.662Z,100.00
2022-08-02T03:30:24.559Z,100.00
2022-08-02T03:35:28.807Z,100.00
2022-08-02T03:40:32.624Z,100.00
2022-08-02T03:45:35.505Z,100.00
2022-08-02T03:50:40.995Z,100.00
2022-08-02T03:55:43.822Z,100.00
2022-08-02T04:00:46.866Z,100.00
2022-08-02T04:06:04.037Z,100.00
2022-08-02T04:11:26.003Z,100.00
2022-08-02T04:16:35.325Z,100.00
2022-08-02T04:21:50.240Z,100.00
2022-08-02T04:26:57.984Z,100.00
2022-08-02T04:32:09.941Z,100.00
2022-08-02T04:37:14.818Z,100.00
2022-08-02T04:42:21.757Z,100.00
2022-08-02T04:48:01.903Z,100.00
2022-08-02T04:52:48.710Z,100.00
2022-08-02T04:57:58.027Z,100.00
2022-08-02T05:03:01.319Z,100.00
2022-08-02T05:08:05.758Z,100.00
2022-08-02T05:13:08.371Z,100.00
2022-08-02T05:18:12.269Z,100.00
2022-08-02T05:23:17.201Z,100.00
2022-08-02T05:28:20.114Z,100.00
2022-08-02T05:33:22.708Z,100.00
2022-08-02T05:38:28.502Z,100.00
2022-08-02T05:43:32.166Z,100.00
2022-08-02T05:48:35.910Z,100.00
2022-08-02T05:53:47.616Z,100.00
2022-08-02T05:58:54.059Z,100.00
2022-08-02T06:04:00.927Z,100.00
2022-08-02T06:09:09.977Z,100.00
2022-08-02T06:14:13.105Z,100.00
2022-08-02T06:19:18.217Z,100.00
2022-08-02T06:24:23.580Z,100.00
2022-08-02T06:29:27.187Z,100.00
2022-08-02T06:34:29.828Z,100.00
2022-08-02T06:39:40.602Z,100.00
2022-08-02T06:44:48.089Z,100.00
2022-08-02T06:49:54.598Z,100.00
2022-08-02T06:55:00.061Z,100.00
2022-08-02T07:00:07.103Z,100.00
2022-08-02T07:05:10.597Z,100.00
2022-08-02T07:10:15.564Z,100.00
2022-08-02T07:15:18.144Z,100.00
2022-08-02T07:20:20.712Z,100.00
2022-08-02T07:25:25.245Z,100.00
2022-08-02T07:30:47.880Z,100.00
2022-08-02T07:35:50.571Z,100.00
2022-08-02T07:40:55.314Z,100.00
2022-08-02T07:46:01.069Z,100.00
2022-08-02T07:51:03.878Z,100.00
2022-08-02T07:56:07.978Z,100.00
2022-08-02T08:01:10.690Z,100.00
2022-08-02T08:06:13.341Z,100.00
2022-08-02T08:11:17.297Z,100.00
2022-08-02T08:16:20.405Z,100.00
2022-08-02T08:21:23.233Z,100.00
2022-08-02T08:26:27.238Z,100.00
2022-08-02T08:31:29.836Z,100.00
2022-08-02T08:36:32.536Z,100.00
2022-08-02T08:41:38.572Z,100.00
2022-08-02T08:46:44.300Z,100.00
2022-08-02T08:51:47.079Z,100.00
2022-08-02T08:56:53.571Z,100.00
2022-08-02T09:01:57.026Z,100.00
2022-08-02T09:06:59.617Z,100.00
2022-08-02T09:12:15.764Z,100.00
2022-08-02T09:17:21.765Z,99.79
2022-08-02T09:22:24.673Z,98.69
2022-08-02T09:27:28.641Z,100.00
2022-08-02T09:32:44.811Z,98.91
2022-08-02T09:37:48.744Z,99.13
2022-08-02T09:43:00.459Z,98.70
2022-08-02T09:48:03.665Z,96.47
2022-08-02T09:53:07.199Z,95.93
2022-08-02T09:58:21.065Z,96.77
2022-08-02T10:03:26.750Z,96.62
2022-08-02T10:08:37.693Z,96.66
2022-08-02T10:13:41.634Z,96.67
2022-08-02T10:18:44.890Z,94.92
2022-08-02T10:23:50.395Z,94.35
2022-08-02T10:28:55.135Z,95.60
2022-08-02T10:34:00.986Z,96.18
2022-08-02T10:39:03.893Z,95.22
2022-08-02T10:44:07.846Z,92.30
2022-08-02T10:49:42.664Z,90.31
2022-08-02T10:54:50.799Z,91.37
2022-08-02T11:00:17.336Z,89.56
2022-08-02T11:05:42.987Z,90.36
2022-08-02T11:10:46.324Z,90.70
2022-08-02T11:16:01.156Z,88.50
2022-08-02T11:21:23.721Z,88.89
2022-08-02T11:26:46.302Z,89.40
2022-08-02T11:31:50.498Z,83.97
2022-08-02T11:36:54.337Z,86.05
2022-08-02T11:41:58.812Z,84.36
2022-08-02T11:47:04.411Z,84.29
2022-08-02T11:52:11.111Z,84.98
2022-08-02T11:57:20.299Z,84.31
2022-08-02T12:02:28.913Z,83.86
2022-08-02T12:07:35.007Z,85.28
2022-08-02T12:12:49.072Z,85.17
2022-08-02T12:18:10.906Z,83.77
2022-08-02T12:23:14.446Z,81.62
2022-08-02T12:28:20.330Z,81.11
2022-08-02T12:33:26.881Z,80.81
2022-08-02T12:38:29.713Z,81.44
2022-08-02T12:43:32.754Z,79.98
2022-08-02T12:48:40.449Z,77.80
2022-08-02T12:53:59.550Z,78.00
2022-08-02T12:59:02.981Z,77.26
2022-08-02T13:04:13.644Z,76.22
2022-08-02T13:09:17.861Z,76.59
2022-08-02T13:14:20.917Z,76.20
2022-08-02T13:19:24.852Z,78.49
2022-08-02T13:24:39.597Z,76.90
2022-08-02T13:29:50.870Z,75.52
2022-08-02T13:34:54.856Z,76.02
2022-08-02T13:40:19.154Z,75.20
2022-08-02T13:45:20.100Z,74.08
2022-08-02T13:50:24.970Z,75.15
2022-08-02T13:55:28.429Z,74.91
2022-08-02T14:00:34.214Z,73.04
2022-08-02T14:05:47.235Z,71.40
2022-08-02T14:10:52.482Z,69.87
2022-08-02T14:15:55.155Z,70.12
2022-08-02T14:20:59.206Z,66.97
2022-08-02T14:26:01.811Z,68.02
2022-08-02T14:31:04.665Z,66.88
2022-08-02T14:36:13.387Z,66.96
2022-08-02T14:41:20.554Z,69.06
2022-08-02T14:46:24.281Z,68.80
2022-08-02T14:51:28.450Z,66.95
2022-08-02T14:56:31.237Z,66.67
2022-08-02T15:01:34.060Z,67.02
2022-08-02T15:06:38.809Z,67.66
2022-08-02T15:11:47.020Z,65.90
2022-08-02T15:16:59.108Z,66.19
2022-08-02T15:22:03.342Z,68.20
2022-08-02T15:27:10.195Z,69.70
2022-08-02T15:32:13.575Z,69.80
2022-08-02T15:37:17.854Z,71.90
2022-08-02T15:42:20.876Z,69.93
2022-08-02T15:47:33.129Z,70.88
2022-08-02T15:52:37.523Z,68.99
2022-08-02T15:57:40.222Z,69.22
2022-08-02T16:02:42.984Z,70.63
2022-08-02T16:07:47.546Z,71.11
2022-08-02T16:12:50.245Z,72.05
2022-08-02T16:17:53.998Z,71.49
2022-08-02T16:22:59.076Z,71.89
2022-08-02T16:28:08.183Z,72.67
2022-08-02T16:33:11.318Z,72.45
2022-08-02T16:38:15.267Z,73.05
2022-08-02T16:43:19.934Z,71.08
2022-08-02T16:48:23.607Z,72.45
2022-08-02T16:53:36.603Z,74.49
2022-08-02T16:58:39.508Z,71.32
2022-08-02T17:03:56.550Z,71.92
2022-08-02T17:09:02.011Z,72.87
2022-08-02T17:14:04.613Z,71.73
2022-08-02T17:19:07.441Z,72.64
2022-08-02T17:24:11.406Z,73.46
2022-08-02T17:29:17.690Z,74.55
2022-08-02T17:34:26.984Z,71.71
2022-08-02T17:39:34.304Z,71.56
2022-08-02T17:44:45.993Z,73.52
2022-08-02T17:49:53.510Z,73.45
2022-08-02T17:54:57.561Z,72.88
2022-08-02T18:00:03.707Z,73.07
2022-08-02T18:05:11.882Z,73.56
2022-08-02T18:10:19.207Z,73.17
2022-08-02T18:15:22.847Z,73.77
2022-08-02T18:20:25.662Z,74.50
2022-08-02T18:25:36.822Z,75.86
2022-08-02T18:30:46.745Z,76.55
2022-08-02T18:35:51.085Z,78.22
2022-08-02T18:40:55.124Z,78.85
2022-08-02T18:46:05.287Z,80.39
2022-08-02T18:51:10.040Z,80.93
2022-08-02T18:56:20.339Z,82.35
2022-08-02T19:01:31.857Z,83.58
2022-08-02T19:06:36.121Z,84.30
2022-08-02T19:11:41.444Z,85.07
2022-08-02T19:16:50.812Z,85.86
2022-08-02T19:27:25.639Z,86.33
2022-08-02T19:32:41.531Z,86.69
2022-08-02T19:37:51.484Z,86.90
2022-08-02T19:44:20.896Z,88.53
2022-08-02T19:48:23.866Z,89.32
2022-08-02T19:53:28.556Z,90.18
2022-08-02T19:58:36.592Z,90.64
2022-08-02T20:03:51.325Z,90.70
2022-08-02T20:08:57.095Z,90.94
2022-08-02T20:14:03.710Z,92.13
2022-08-02T20:19:08.033Z,92.41
2022-08-02T20:24:10.705Z,93.00
2022-08-02T20:29:14.655Z,93.89
2022-08-02T20:34:17.298Z,94.72
2022-08-02T20:39:21.950Z,95.28
2022-08-02T20:50:03.047Z,96.33
2022-08-02T20:55:08.072Z,96.03
2022-08-02T21:00:23.377Z,95.95
2022-08-02T21:05:26.738Z,96.27
2022-08-02T21:10:51.942Z,96.17
2022-08-02T21:16:07.873Z,96.60
2022-08-02T21:21:11.672Z,98.38
2022-08-02T21:26:19.905Z,98.87
2022-08-02T21:31:32.002Z,99.19
2022-08-02T21:36:38.680Z,99.22
2022-08-02T21:47:11.122Z,100.00
2022-08-02T21:52:15.495Z,100.00
2022-08-02T21:57:19.697Z,100.00
2022-08-02T22:02:30.518Z,100.00
2022-08-02T22:07:38.313Z,100.00
2022-08-02T22:12:41.364Z,100.00
2022-08-02T22:17:53.011Z,100.00
2022-08-02T22:23:12.802Z,100.00
2022-08-02T22:28:38.825Z,100.00
2022-08-02T22:34:00.227Z,100.00
2022-08-02T22:39:05.879Z,100.00
2022-08-02T22:44:22.239Z,100.00
2022-08-02T22:49:38.226Z,100.00
2022-08-02T22:54:46.949Z,100.00
2022-08-02T22:58:59.153Z,85.87
2022-08-02T22:59:03.343Z,100.00
2022-08-02T22:59:08.077Z,96.76
2022-08-02T22:59:49.519Z,100.00
2022-08-02T23:04:53.632Z,100.00
2022-08-02T23:09:56.265Z,100.00
2022-08-02T23:14:59.070Z,100.00
2022-08-02T23:20:03.184Z,100.00
2022-08-02T23:25:08.414Z,100.00
2022-08-02T23:30:11.560Z,100.00
2022-08-02T23:35:17.277Z,100.00
2022-08-02T23:40:39.572Z,100.00
2022-08-02T23:45:44.420Z,100.00
2022-08-02T23:50:48.480Z,100.00
2022-08-02T23:55:51.205Z,100.00
